Lynnwood, Washington
Current Conditions -  °F | °C
As of 4:53 AM on Thursday 23 Oct 2014 (Local Time) from KPAE Reporting Station
Scattered Clouds Scattered Clouds  
Wind Chill: 52°   Ceiling: Unl
Heat Index: 52°   Visibility: 10mi
Dew Point: 47°   Wind: 9mph
Humidity: 83%   Direction: 170°S
Pressure: 29.7"   Gusts: NA
Location:  47.83°N, 122.29°W
Report Text: KPAE 231153Z AUTO 17008KT 10SM SCT100 11/08 A2970 RMK AO2 SLP059 60000 70065 T01110083 10128 20111 55006
Loading
Personal Weather Stations






























Interactive Weather Map
Tropical Storm Tracking
New forecast layout! Learn more

10-Day Weather Forecast

Advertisements
Track Severe Weather on mobile